Terminal Aerodrome Forecast
Issued by NWS Wakefield, VA

Home | Current Version | Previous Version | Text Only | Print | Product List | Glossary On
Versions: 1 2 3 4 5 6 7 8 9 10 11 12 13 14 15 16 17 18 19 20 21 22 23 24 25 26 27 28 29
000
FTUS41 KAKQ 031139
TAFRIC
TAF
KRIC 031139Z 0312/0412 22005KT P6SM -RA OVC007
     FM031600 24006KT P6SM OVC020
     FM032000 35005KT P6SM VCSH OVC040
     FM040300 02004KT 4SM BR OVC015
     FM040700 03004KT 4SM BR OVC007=

USA.gov is the U.S. government's official web portal to all federal, state and local government web resources and services.